createdAt,value
2023-05-04T00:00:49.566Z,39.90
2023-05-04T00:01:49.604Z,39.88
2023-05-04T00:02:49.707Z,39.89
2023-05-04T00:03:49.831Z,39.90
2023-05-04T00:04:49.845Z,39.90
2023-05-04T00:05:49.782Z,39.86
2023-05-04T00:06:49.847Z,39.86
2023-05-04T00:07:49.890Z,39.88
2023-05-04T00:08:49.937Z,39.88
2023-05-04T00:09:49.975Z,39.89
2023-05-04T00:10:50.035Z,39.86
2023-05-04T00:11:50.488Z,39.87
2023-05-04T00:12:50.203Z,39.86
2023-05-04T00:13:50.195Z,39.86
2023-05-04T00:14:50.232Z,39.86
2023-05-04T00:15:50.309Z,39.86
2023-05-04T00:16:50.450Z,39.85
2023-05-04T00:17:50.402Z,39.85
2023-05-04T00:18:50.437Z,39.85
2023-05-04T00:19:50.484Z,39.84
2023-05-04T00:20:50.530Z,39.86
2023-05-04T00:21:50.987Z,39.86
2023-05-04T00:22:50.644Z,39.84
2023-05-04T00:23:50.718Z,39.84
2023-05-04T00:24:50.762Z,39.81
2023-05-04T00:25:50.838Z,39.81
2023-05-04T00:26:50.866Z,39.82
2023-05-04T00:27:50.927Z,39.83
2023-05-04T00:28:50.989Z,39.82
2023-05-04T00:29:51.025Z,39.81
2023-05-04T00:30:51.107Z,39.80
2023-05-04T00:31:51.225Z,39.79
2023-05-04T00:32:51.257Z,39.79
2023-05-04T00:33:51.231Z,39.80
2023-05-04T00:34:51.306Z,39.77
2023-05-04T00:35:51.342Z,39.76
2023-05-04T00:36:51.387Z,39.77
2023-05-04T00:37:51.450Z,39.78
2023-05-04T00:38:51.514Z,39.78
2023-05-04T00:39:51.581Z,39.79
2023-05-04T00:40:51.614Z,39.75
2023-05-04T00:41:52.043Z,39.77
2023-05-04T00:42:51.742Z,39.76
2023-05-04T00:43:51.817Z,39.77
2023-05-04T00:44:51.871Z,39.77
2023-05-04T00:45:51.888Z,39.74
2023-05-04T00:46:52.007Z,39.76
2023-05-04T00:47:52.076Z,39.78
2023-05-04T00:48:52.118Z,39.73
2023-05-04T00:49:52.121Z,39.75
2023-05-04T00:50:52.166Z,39.76
2023-05-04T00:51:52.265Z,39.73
2023-05-04T00:52:52.301Z,39.72
2023-05-04T00:53:52.353Z,39.72
2023-05-04T00:54:52.411Z,39.73
2023-05-04T00:55:52.475Z,39.73
2023-05-04T00:56:52.522Z,39.74
2023-05-04T00:57:52.618Z,39.73
2023-05-04T00:58:52.631Z,39.71
2023-05-04T00:59:52.737Z,39.72
2023-05-04T01:00:52.806Z,39.70
2023-05-04T01:01:52.825Z,39.71
2023-05-04T01:02:52.924Z,39.72
2023-05-04T01:03:52.988Z,39.72
2023-05-04T01:04:53.018Z,39.67
2023-05-04T01:05:53.058Z,39.69
2023-05-04T01:06:53.152Z,39.70
2023-05-04T01:07:53.202Z,39.70
2023-05-04T01:08:53.979Z,39.70
2023-05-04T01:09:53.295Z,39.69
2023-05-04T01:10:53.379Z,39.69
2023-05-04T01:11:53.422Z,39.68
2023-05-04T01:12:53.502Z,39.67
2023-05-04T01:13:53.561Z,39.69
2023-05-04T01:14:53.586Z,39.69
2023-05-04T01:15:53.675Z,39.67
2023-05-04T01:16:53.799Z,39.65
2023-05-04T01:17:53.857Z,39.65
2023-05-04T01:18:53.849Z,39.67
2023-05-04T01:19:53.921Z,39.66
2023-05-04T01:20:53.981Z,39.67
2023-05-04T01:21:54.006Z,39.65
2023-05-04T01:22:54.065Z,39.65
2023-05-04T01:23:54.147Z,39.64
2023-05-04T01:24:54.228Z,39.65
2023-05-04T01:25:54.230Z,39.63
2023-05-04T01:26:54.308Z,39.63
2023-05-04T01:27:54.375Z,39.62
2023-05-04T01:28:54.404Z,39.61
2023-05-04T01:29:54.466Z,39.62
2023-05-04T01:30:54.571Z,39.64
2023-05-04T01:31:55.011Z,39.60
2023-05-04T01:32:54.724Z,39.62
2023-05-04T01:33:54.704Z,39.63
2023-05-04T01:34:54.792Z,39.61
2023-05-04T01:35:54.812Z,39.62
2023-05-04T01:36:54.879Z,39.62
2023-05-04T01:37:54.939Z,39.62
2023-05-04T01:38:54.998Z,39.58
2023-05-04T01:39:55.042Z,39.58
2023-05-04T01:40:55.115Z,39.60
2023-05-04T01:41:55.555Z,39.59
2023-05-04T01:42:55.226Z,39.57
2023-05-04T01:43:55.274Z,39.56
2023-05-04T01:44:55.334Z,39.59
2023-05-04T01:45:55.477Z,39.57
2023-05-04T01:46:55.502Z,39.56
2023-05-04T01:47:55.591Z,39.57
2023-05-04T01:48:55.568Z,39.57
2023-05-04T01:49:55.653Z,39.58
2023-05-04T01:50:55.696Z,39.55
2023-05-04T01:51:55.743Z,39.56
2023-05-04T01:52:55.802Z,39.56
2023-05-04T01:53:55.931Z,39.55
2023-05-04T01:54:55.938Z,39.54
2023-05-04T01:55:55.991Z,39.54
2023-05-04T01:56:56.517Z,39.54
2023-05-04T01:57:56.124Z,39.53
2023-05-04T01:58:56.141Z,39.52
2023-05-04T01:59:56.996Z,39.51
2023-05-04T02:00:56.275Z,39.53
2023-05-04T02:01:56.525Z,39.54
2023-05-04T02:02:56.434Z,39.50
2023-05-04T02:03:56.523Z,39.55
2023-05-04T02:04:56.491Z,39.51
2023-05-04T02:05:56.580Z,39.53
2023-05-04T02:06:56.622Z,39.53
2023-05-04T02:07:56.699Z,39.52
2023-05-04T02:08:56.766Z,39.51
2023-05-04T02:09:56.809Z,39.53
2023-05-04T02:10:56.868Z,39.51
2023-05-04T02:11:56.966Z,39.51
2023-05-04T02:12:57.012Z,39.50
2023-05-04T02:13:57.036Z,39.53
2023-05-04T02:14:57.168Z,39.49
2023-05-04T02:15:57.191Z,39.52
2023-05-04T02:16:57.210Z,39.51
2023-05-04T02:17:57.296Z,39.50
2023-05-04T02:18:57.338Z,39.51
2023-05-04T02:19:57.406Z,39.50
2023-05-04T02:20:57.489Z,39.47
2023-05-04T02:21:57.546Z,39.52
2023-05-04T02:22:57.569Z,39.48
2023-05-04T02:23:57.644Z,39.48
2023-05-04T02:24:57.734Z,39.50
2023-05-04T02:25:57.793Z,39.47
2023-05-04T02:26:57.852Z,39.49
2023-05-04T02:27:57.901Z,39.47
2023-05-04T02:28:57.915Z,39.49
2023-05-04T02:29:58.001Z,39.49
2023-05-04T02:30:58.099Z,39.47
2023-05-04T02:31:58.177Z,39.46
2023-05-04T02:32:58.236Z,39.44
2023-05-04T02:33:58.242Z,39.47
2023-05-04T02:34:58.358Z,39.42
2023-05-04T02:35:58.398Z,39.46
2023-05-04T02:36:58.440Z,39.44
2023-05-04T02:37:58.497Z,39.44
2023-05-04T02:38:58.580Z,39.43
2023-05-04T02:39:58.620Z,39.44
2023-05-04T02:40:58.693Z,39.44
2023-05-04T02:41:58.749Z,39.42
2023-05-04T02:42:58.828Z,39.41
2023-05-04T02:43:58.863Z,39.44
2023-05-04T02:44:58.929Z,39.41
2023-05-04T02:45:59.029Z,39.42
2023-05-04T02:46:59.059Z,39.42
2023-05-04T02:47:59.129Z,39.43
2023-05-04T02:48:59.195Z,39.42
2023-05-04T02:49:59.241Z,39.42
2023-05-04T02:50:59.277Z,39.41
2023-05-04T02:51:59.357Z,39.39
2023-05-04T02:52:59.399Z,39.42
2023-05-04T02:53:59.475Z,39.41
2023-05-04T02:54:59.578Z,39.39
2023-05-04T02:55:59.644Z,39.41
2023-05-04T02:56:59.688Z,39.39
2023-05-04T02:57:59.761Z,39.40
2023-05-04T02:58:59.799Z,39.41
2023-05-04T02:59:59.870Z,39.40
2023-05-04T03:01:00.026Z,39.36
2023-05-04T03:02:00.053Z,39.40
2023-05-04T03:03:00.121Z,39.39
2023-05-04T03:04:00.148Z,39.39
2023-05-04T03:05:00.206Z,39.38
2023-05-04T03:06:00.216Z,39.38
2023-05-04T03:07:00.510Z,39.37
2023-05-04T03:08:00.340Z,39.36
2023-05-04T03:09:00.412Z,39.36
2023-05-04T03:10:00.460Z,39.37
2023-05-04T03:11:00.510Z,39.36
2023-05-04T03:12:00.601Z,39.32
2023-05-04T03:13:00.700Z,39.34
2023-05-04T03:14:00.753Z,39.36
2023-05-04T03:15:00.757Z,39.36
2023-05-04T03:16:00.871Z,39.37
2023-05-04T03:17:00.925Z,39.37
2023-05-04T03:18:01.069Z,39.35
2023-05-04T03:19:01.023Z,39.36
2023-05-04T03:20:01.096Z,39.35
2023-05-04T03:21:01.171Z,39.34
2023-05-04T03:22:01.545Z,39.34
2023-05-04T03:23:01.241Z,39.33
2023-05-04T03:24:01.333Z,39.33
2023-05-04T03:25:01.379Z,39.31
2023-05-04T03:26:01.433Z,39.34
2023-05-04T03:27:01.496Z,39.32
2023-05-04T03:28:01.560Z,39.32
2023-05-04T03:29:01.603Z,39.34
2023-05-04T03:30:01.781Z,39.33
2023-05-04T03:31:01.788Z,39.32
2023-05-04T03:32:01.831Z,39.30
2023-05-04T03:33:01.910Z,39.31
2023-05-04T03:34:01.961Z,39.31
2023-05-04T03:35:03.904Z,39.31
2023-05-04T03:36:02.081Z,39.31
2023-05-04T03:37:02.537Z,39.28
2023-05-04T03:38:02.177Z,39.30
2023-05-04T03:39:02.254Z,39.28
2023-05-04T03:40:02.326Z,39.27
2023-05-04T03:41:02.364Z,39.28
2023-05-04T03:42:02.466Z,39.29
2023-05-04T03:43:02.500Z,39.27
2023-05-04T03:44:02.545Z,39.28
2023-05-04T03:45:04.086Z,39.26
2023-05-04T03:46:02.714Z,39.27
2023-05-04T03:47:03.051Z,39.27
2023-05-04T03:48:03.574Z,39.29
2023-05-04T03:49:02.865Z,39.29
2023-05-04T03:50:03.269Z,39.25
2023-05-04T03:51:02.977Z,39.24
2023-05-04T03:52:03.535Z,39.24
2023-05-04T03:53:03.132Z,39.26
2023-05-04T03:54:03.177Z,39.25
2023-05-04T03:55:03.253Z,39.22
2023-05-04T03:56:03.313Z,39.25
2023-05-04T03:57:03.328Z,39.25
2023-05-04T03:58:03.517Z,39.22
2023-05-04T03:59:03.486Z,39.23
2023-05-04T04:00:03.688Z,39.22
2023-05-04T04:01:03.563Z,39.21
2023-05-04T04:02:04.082Z,39.23
2023-05-04T04:03:03.829Z,39.20
2023-05-04T04:04:04.048Z,39.19
2023-05-04T04:05:03.874Z,39.17
2023-05-04T04:06:03.919Z,39.20
2023-05-04T04:07:03.980Z,39.17
2023-05-04T04:08:04.045Z,39.20
2023-05-04T04:09:04.062Z,39.19
2023-05-04T04:10:04.294Z,39.19
2023-05-04T04:11:04.198Z,39.18
2023-05-04T04:12:04.260Z,39.19
2023-05-04T04:13:04.385Z,39.17
2023-05-04T04:14:04.455Z,39.18
2023-05-04T04:15:04.414Z,39.17
2023-05-04T04:16:04.549Z,39.16
2023-05-04T04:17:04.569Z,39.14
2023-05-04T04:18:04.661Z,39.14
2023-05-04T04:19:04.691Z,39.14
2023-05-04T04:20:04.999Z,39.15
2023-05-04T04:21:04.804Z,39.13
2023-05-04T04:22:04.855Z,39.13
2023-05-04T04:23:04.934Z,39.10
2023-05-04T04:24:04.982Z,39.13
2023-05-04T04:25:05.054Z,39.12
2023-05-04T04:26:05.084Z,39.11
2023-05-04T04:27:05.569Z,39.07
2023-05-04T04:28:05.167Z,39.06
2023-05-04T04:29:05.236Z,39.06
2023-05-04T04:30:05.541Z,39.09
2023-05-04T04:31:05.286Z,39.06
2023-05-04T04:32:05.347Z,39.06
2023-05-04T04:33:05.451Z,39.04
2023-05-04T04:34:05.437Z,39.04
2023-05-04T04:35:05.513Z,39.06
2023-05-04T04:36:05.570Z,39.02
2023-05-04T04:37:05.636Z,39.02
2023-05-04T04:38:05.655Z,39.01
2023-05-04T04:39:05.720Z,38.98
2023-05-04T04:40:05.990Z,38.97
2023-05-04T04:41:05.838Z,38.99
2023-05-04T04:42:05.878Z,38.98
2023-05-04T04:43:06.088Z,38.95
2023-05-04T04:44:05.992Z,38.95
2023-05-04T04:45:06.023Z,38.91
2023-05-04T04:46:06.030Z,38.90
2023-05-04T04:47:06.122Z,38.91
2023-05-04T04:48:06.188Z,38.90
2023-05-04T04:49:06.185Z,38.90
2023-05-04T04:50:06.556Z,38.88
2023-05-04T04:51:06.295Z,38.87
2023-05-04T04:52:06.368Z,38.87
2023-05-04T04:53:06.454Z,38.84
2023-05-04T04:54:06.520Z,38.84
2023-05-04T04:55:06.602Z,38.81
2023-05-04T04:56:06.620Z,38.82
2023-05-04T04:57:06.654Z,38.81
2023-05-04T04:58:07.072Z,38.79
2023-05-04T04:59:06.803Z,38.78
2023-05-04T05:00:07.042Z,38.77
2023-05-04T05:01:06.945Z,38.77
2023-05-04T05:02:07.025Z,38.72
2023-05-04T05:03:07.108Z,38.70
2023-05-04T05:04:07.096Z,38.70
2023-05-04T05:05:07.396Z,38.72
2023-05-04T05:06:07.202Z,38.67
2023-05-04T05:07:07.589Z,38.66
2023-05-04T05:08:07.393Z,38.68
2023-05-04T05:09:07.449Z,38.66
2023-05-04T05:10:07.580Z,38.66
2023-05-04T05:11:07.537Z,38.64
2023-05-04T05:12:08.092Z,38.63
2023-05-04T05:13:07.678Z,38.61
2023-05-04T05:14:07.756Z,38.61
2023-05-04T05:15:07.812Z,38.61
2023-05-04T05:16:07.903Z,38.59
2023-05-04T05:17:08.044Z,38.59
2023-05-04T05:18:07.993Z,38.57
2023-05-04T05:19:08.030Z,38.56
2023-05-04T05:20:08.076Z,38.52
2023-05-04T05:21:08.144Z,38.54
2023-05-04T05:22:08.193Z,38.52
2023-05-04T05:23:08.267Z,38.52
2023-05-04T05:24:08.317Z,38.48
2023-05-04T05:25:08.418Z,38.48
2023-05-04T05:26:08.455Z,38.47
2023-05-04T05:27:08.590Z,38.43
2023-05-04T05:28:08.588Z,38.44
2023-05-04T05:29:08.621Z,38.41
2023-05-04T05:30:08.656Z,38.41
2023-05-04T05:31:08.767Z,38.39
2023-05-04T05:32:09.087Z,38.38
2023-05-04T05:33:08.875Z,38.36
2023-05-04T05:34:08.893Z,38.35
2023-05-04T05:35:08.976Z,38.36
2023-05-04T05:36:09.017Z,38.35
2023-05-04T05:37:09.072Z,38.31
2023-05-04T05:38:09.146Z,38.30
2023-05-04T05:39:09.179Z,38.30
2023-05-04T05:40:09.206Z,38.28
2023-05-04T05:41:09.280Z,38.27
2023-05-04T05:42:09.337Z,38.25
2023-05-04T05:43:09.389Z,38.24
2023-05-04T05:44:11.130Z,38.22
2023-05-04T05:45:09.453Z,38.19
2023-05-04T05:46:09.468Z,38.19
2023-05-04T05:47:09.436Z,38.19
2023-05-04T05:48:09.504Z,38.18
2023-05-04T05:49:09.423Z,38.16
2023-05-04T05:50:09.432Z,38.14
2023-05-04T05:51:09.395Z,38.14
2023-05-04T05:52:09.379Z,38.25
2023-05-04T05:53:09.621Z,38.45
2023-05-04T05:54:09.388Z,38.55
2023-05-04T05:55:10.420Z,38.73
2023-05-04T05:56:10.379Z,38.94
2023-05-04T05:57:09.395Z,39.50
2023-05-04T05:58:09.573Z,39.80
2023-05-04T05:59:09.331Z,40.43
2023-05-04T06:00:09.364Z,40.67
2023-05-04T06:01:09.354Z,40.65
2023-05-04T06:02:09.417Z,40.91
2023-05-04T06:03:09.666Z,40.72
2023-05-04T06:04:09.548Z,40.70
2023-05-04T06:05:09.350Z,40.59
2023-05-04T06:06:09.288Z,40.54
2023-05-04T06:07:09.300Z,40.54
2023-05-04T06:08:09.284Z,40.41
2023-05-04T06:09:09.298Z,40.39
2023-05-04T06:10:09.270Z,40.37
2023-05-04T06:11:09.251Z,40.26
2023-05-04T06:12:09.235Z,40.29
2023-05-04T06:13:09.637Z,40.25
2023-05-04T06:14:09.248Z,40.20
2023-05-04T06:15:09.252Z,40.23
2023-05-04T06:16:09.274Z,40.22
2023-05-04T06:17:09.230Z,40.22
2023-05-04T06:18:09.648Z,40.24
2023-05-04T06:19:09.180Z,40.22
2023-05-04T06:20:09.231Z,40.14
2023-05-04T06:21:09.204Z,40.11
2023-05-04T06:22:09.196Z,40.12
2023-05-04T06:23:09.592Z,40.13
2023-05-04T06:24:09.194Z,40.13
2023-05-04T06:25:09.161Z,40.05
2023-05-04T06:26:09.145Z,39.99
2023-05-04T06:27:09.176Z,39.91
2023-05-04T06:28:09.636Z,39.96
2023-05-04T06:29:09.140Z,39.88
2023-05-04T06:30:09.419Z,39.83
2023-05-04T06:31:09.227Z,39.76
2023-05-04T06:32:09.408Z,39.76
2023-05-04T06:33:09.167Z,39.72
2023-05-04T06:34:09.125Z,39.67
2023-05-04T06:35:09.222Z,39.68
2023-05-04T06:36:09.099Z,39.65
2023-05-04T06:37:09.141Z,39.66
2023-05-04T06:38:09.114Z,39.60
2023-05-04T06:39:09.080Z,39.65
2023-05-04T06:40:09.378Z,39.63
2023-05-04T06:41:09.059Z,39.61
2023-05-04T06:42:09.054Z,39.60
2023-05-04T06:43:09.034Z,39.64
2023-05-04T06:44:09.043Z,39.63
2023-05-04T06:45:09.066Z,39.59
2023-05-04T06:46:09.072Z,39.57
2023-05-04T06:47:09.065Z,39.55
2023-05-04T06:48:09.177Z,39.53
2023-05-04T06:49:09.016Z,39.52
2023-05-04T06:50:09.023Z,39.51
2023-05-04T06:51:09.001Z,39.47
2023-05-04T06:52:09.004Z,39.43
2023-05-04T06:53:08.975Z,39.43
2023-05-04T06:54:09.772Z,39.39
2023-05-04T06:55:08.998Z,39.40
2023-05-04T06:56:08.947Z,39.37
2023-05-04T06:57:08.974Z,39.37
2023-05-04T06:58:09.118Z,39.36
2023-05-04T06:59:08.943Z,39.35
2023-05-04T07:00:08.944Z,39.36
2023-05-04T07:01:08.997Z,39.32
2023-05-04T07:02:08.924Z,39.27
2023-05-04T07:03:09.274Z,39.23
2023-05-04T07:04:08.924Z,39.19
2023-05-04T07:05:08.910Z,39.19
2023-05-04T07:06:08.873Z,39.15
2023-05-04T07:07:08.878Z,39.15
2023-05-04T07:08:09.104Z,39.10
2023-05-04T07:09:08.878Z,39.08
2023-05-04T07:10:08.860Z,39.06
2023-05-04T07:11:08.874Z,39.02
2023-05-04T07:12:08.857Z,39.01
2023-05-04T07:13:09.218Z,39.00
2023-05-04T07:14:10.482Z,38.99
2023-05-04T07:15:08.852Z,38.97
2023-05-04T07:16:08.846Z,38.98
2023-05-04T07:17:08.834Z,38.93
2023-05-04T07:18:09.149Z,38.93
2023-05-04T07:19:08.858Z,38.91
2023-05-04T07:20:08.864Z,38.89
2023-05-04T07:21:25.989Z,38.88
2023-05-04T07:22:09.857Z,38.87
2023-05-04T07:23:09.142Z,38.81
2023-05-04T07:24:08.870Z,38.83
2023-05-04T07:25:08.798Z,38.84
2023-05-04T07:26:08.901Z,38.81
2023-05-04T07:27:08.811Z,38.78
2023-05-04T07:28:08.816Z,38.76
2023-05-04T07:29:08.795Z,38.72
2023-05-04T07:30:08.825Z,38.68
2023-05-04T07:31:08.789Z,38.67
2023-05-04T07:32:08.812Z,38.63
2023-05-04T07:33:08.778Z,38.62
2023-05-04T07:34:08.765Z,38.62
2023-05-04T07:35:08.767Z,38.58
2023-05-04T07:36:08.768Z,38.56
2023-05-04T07:37:08.771Z,38.52
2023-05-04T07:38:08.758Z,38.51
2023-05-04T07:39:08.742Z,38.48
2023-05-04T07:40:08.703Z,38.45
2023-05-04T07:41:08.713Z,38.41
2023-05-04T07:42:08.696Z,38.40
2023-05-04T07:43:09.123Z,38.36
2023-05-04T07:44:08.683Z,38.32
2023-05-04T07:45:08.678Z,38.25
2023-05-04T07:46:08.697Z,38.25
2023-05-04T07:47:08.682Z,38.21
2023-05-04T07:48:08.697Z,38.02
2023-05-04T07:49:08.678Z,37.97
2023-05-04T07:50:08.639Z,37.00
2023-05-04T07:51:08.662Z,35.36
2023-05-04T07:52:08.649Z,33.31
2023-05-04T07:53:09.162Z,32.47
2023-05-04T07:54:08.636Z,31.86
2023-05-04T07:55:08.653Z,31.84
2023-05-04T07:56:08.703Z,32.03
2023-05-04T07:57:08.647Z,32.39
2023-05-04T07:58:08.637Z,33.32
2023-05-04T07:59:08.606Z,34.08
2023-05-04T08:00:08.651Z,34.76
2023-05-04T08:01:08.667Z,35.31
2023-05-04T08:02:08.679Z,35.72
2023-05-04T08:03:09.195Z,35.61
2023-05-04T08:04:08.749Z,35.31
2023-05-04T08:05:08.788Z,35.95
2023-05-04T08:06:08.798Z,36.72
2023-05-04T08:07:08.831Z,37.01
2023-05-04T08:08:09.123Z,36.93
2023-05-04T08:09:08.855Z,37.03
2023-05-04T08:10:08.905Z,37.12
2023-05-04T08:11:19.146Z,37.04
2023-05-04T08:12:09.906Z,36.79
2023-05-04T08:13:09.377Z,36.84
2023-05-04T08:14:09.016Z,36.77
2023-05-04T08:15:08.896Z,36.25
2023-05-04T08:16:08.894Z,35.06
2023-05-04T08:17:08.904Z,34.40
2023-05-04T08:18:09.119Z,33.77
2023-05-04T08:19:08.848Z,33.37
2023-05-04T08:20:08.846Z,33.26
2023-05-04T08:21:08.864Z,32.81
2023-05-04T08:22:08.893Z,32.44
2023-05-04T08:23:09.127Z,32.19
2023-05-04T08:24:08.968Z,31.83
2023-05-04T08:25:08.991Z,31.64
2023-05-04T08:26:09.041Z,31.21
2023-05-04T08:27:09.990Z,31.27
2023-05-04T08:28:09.115Z,31.11
2023-05-04T08:29:09.133Z,31.05
2023-05-04T08:30:09.149Z,31.06
2023-05-04T08:31:09.152Z,31.03
2023-05-04T08:32:09.261Z,30.73
2023-05-04T08:33:09.309Z,30.61
2023-05-04T08:34:09.332Z,30.87
2023-05-04T08:35:09.357Z,30.90
2023-05-04T08:36:09.448Z,30.68
2023-05-04T08:37:09.425Z,30.52
2023-05-04T08:38:09.615Z,31.15
2023-05-04T08:39:09.542Z,31.86
2023-05-04T08:40:09.618Z,32.08
2023-05-04T08:41:09.653Z,31.50
2023-05-04T08:42:09.662Z,30.31
2023-05-04T08:43:10.956Z,30.27
2023-05-04T08:44:09.744Z,30.70
2023-05-04T08:45:09.780Z,31.33
2023-05-04T08:46:09.877Z,31.42
2023-05-04T08:47:09.803Z,31.62
2023-05-04T08:48:09.804Z,32.23
2023-05-04T08:49:09.797Z,32.92
2023-05-04T08:50:09.829Z,33.12
2023-05-04T08:51:09.830Z,33.40
2023-05-04T08:52:09.833Z,33.52
2023-05-04T08:53:09.889Z,32.90
2023-05-04T08:54:09.891Z,33.56
2023-05-04T08:55:10.047Z,33.05
2023-05-04T08:56:09.975Z,33.80
2023-05-04T08:57:10.014Z,34.22
2023-05-04T08:58:10.101Z,34.28
2023-05-04T08:59:10.074Z,34.31
2023-05-04T09:00:10.076Z,33.91
2023-05-04T09:01:10.137Z,34.08
2023-05-04T09:02:10.281Z,33.97
2023-05-04T09:03:10.247Z,34.34
2023-05-04T09:04:10.268Z,33.61
2023-05-04T09:05:10.284Z,33.54
2023-05-04T09:06:10.311Z,33.78
2023-05-04T09:07:10.360Z,34.20
2023-05-04T09:08:10.284Z,34.41
2023-05-04T09:09:10.291Z,33.91
2023-05-04T09:10:10.308Z,33.28
2023-05-04T09:11:10.342Z,34.18
2023-05-04T09:12:10.358Z,34.51
2023-05-04T09:13:10.476Z,34.24
2023-05-04T09:14:11.436Z,33.98
2023-05-04T09:15:10.404Z,33.97
2023-05-04T09:16:10.810Z,34.15
2023-05-04T09:17:10.396Z,34.55
2023-05-04T09:18:10.415Z,34.65
2023-05-04T09:19:10.368Z,34.38
2023-05-04T09:20:10.345Z,34.63
2023-05-04T09:21:10.310Z,34.67
2023-05-04T09:22:10.319Z,34.87
2023-05-04T09:23:10.361Z,34.44
2023-05-04T09:24:10.305Z,34.90
2023-05-04T09:25:10.309Z,34.59
2023-05-04T09:26:10.318Z,34.83
2023-05-04T09:27:10.311Z,35.22
2023-05-04T09:28:10.272Z,35.17
2023-05-04T09:29:10.287Z,35.50
2023-05-04T09:30:10.271Z,35.50
2023-05-04T09:31:10.353Z,35.38
2023-05-04T09:32:10.247Z,35.54
2023-05-04T09:33:10.233Z,35.97
2023-05-04T09:34:10.229Z,35.23
2023-05-04T09:35:12.225Z,35.71
2023-05-04T09:36:11.222Z,35.29
2023-05-04T09:37:10.224Z,35.59
2023-05-04T09:38:10.213Z,35.96
2023-05-04T09:39:11.400Z,35.89
2023-05-04T09:40:10.227Z,35.80
2023-05-04T09:41:10.215Z,36.09
2023-05-04T09:42:10.179Z,36.22
2023-05-04T09:43:10.239Z,35.85
2023-05-04T09:44:10.157Z,35.78
2023-05-04T09:45:10.194Z,35.75
2023-05-04T09:46:10.194Z,36.38
2023-05-04T09:47:10.161Z,36.52
2023-05-04T09:48:10.173Z,36.51
2023-05-04T09:49:10.173Z,36.52
2023-05-04T09:50:10.127Z,36.20
2023-05-04T09:51:10.120Z,36.64
2023-05-04T09:52:10.123Z,36.84
2023-05-04T09:53:10.122Z,37.16
2023-05-04T09:54:10.107Z,37.13
2023-05-04T09:55:10.122Z,37.14
2023-05-04T09:56:10.116Z,36.99
2023-05-04T09:57:10.099Z,37.27
2023-05-04T09:58:10.125Z,36.93
2023-05-04T09:59:10.096Z,36.98
2023-05-04T10:00:10.078Z,37.52
2023-05-04T10:01:10.046Z,37.70
2023-05-04T10:02:21.284Z,37.61
2023-05-04T10:03:11.074Z,36.89
2023-05-04T10:04:10.065Z,37.04
2023-05-04T10:05:10.093Z,35.18
2023-05-04T10:06:10.044Z,36.00
2023-05-04T10:07:10.030Z,35.00
2023-05-04T10:08:10.036Z,35.25
2023-05-04T10:09:10.006Z,36.39
2023-05-04T10:10:10.003Z,35.79
2023-05-04T10:11:09.979Z,35.79
2023-05-04T10:12:10.018Z,36.18
2023-05-04T10:13:10.191Z,36.17
2023-05-04T10:14:10.079Z,36.03
2023-05-04T10:15:10.081Z,35.89
2023-05-04T10:16:10.147Z,35.92
2023-05-04T10:17:11.416Z,36.44
2023-05-04T10:18:10.080Z,36.03
2023-05-04T10:19:10.069Z,35.79
2023-05-04T10:20:10.091Z,35.73
2023-05-04T10:21:10.081Z,35.74
2023-05-04T10:22:10.062Z,35.95
2023-05-04T10:23:10.060Z,35.92
2023-05-04T10:24:10.022Z,35.85
2023-05-04T10:25:10.052Z,35.96
2023-05-04T10:26:10.045Z,35.43
2023-05-04T10:27:10.054Z,35.23
2023-05-04T10:28:10.074Z,35.51
2023-05-04T10:29:10.200Z,35.33
2023-05-04T10:30:10.142Z,34.89
2023-05-04T10:31:10.268Z,35.67
2023-05-04T10:32:10.259Z,35.23
2023-05-04T10:33:10.353Z,35.64
2023-05-04T10:34:10.357Z,35.47
2023-05-04T10:35:10.433Z,34.27
2023-05-04T10:36:10.500Z,34.55
2023-05-04T10:37:10.400Z,35.16
2023-05-04T10:38:10.406Z,33.99
2023-05-04T10:39:10.720Z,33.24
2023-05-04T10:40:10.435Z,34.98
2023-05-04T10:41:10.426Z,34.21
2023-05-04T10:42:10.486Z,33.97
2023-05-04T10:43:10.471Z,34.07
2023-05-04T10:44:10.504Z,33.86
2023-05-04T10:45:10.505Z,33.81
2023-05-04T10:46:10.634Z,33.83
2023-05-04T10:47:10.535Z,33.56
2023-05-04T10:48:10.642Z,33.62
2023-05-04T10:49:10.671Z,33.70
2023-05-04T10:50:10.618Z,33.73
2023-05-04T10:51:10.642Z,33.78
2023-05-04T10:52:10.666Z,33.72
2023-05-04T10:53:10.682Z,33.76
2023-05-04T10:54:10.726Z,33.70
2023-05-04T10:55:10.750Z,33.44
2023-05-04T10:56:10.757Z,33.33
2023-05-04T10:57:10.806Z,33.58
2023-05-04T10:58:10.867Z,33.35
2023-05-04T10:59:10.866Z,33.39
2023-05-04T11:00:10.922Z,33.38
2023-05-04T11:01:10.954Z,33.27
2023-05-04T11:02:11.004Z,33.38
2023-05-04T11:03:11.093Z,33.23
2023-05-04T11:04:11.122Z,33.18
2023-05-04T11:05:11.083Z,33.31
2023-05-04T11:06:11.142Z,33.21
2023-05-04T11:07:11.193Z,33.23
2023-05-04T11:08:11.260Z,33.24
2023-05-04T11:09:11.298Z,33.20
2023-05-04T11:10:11.325Z,33.11
2023-05-04T11:11:11.369Z,33.05
2023-05-04T11:12:11.424Z,33.18
2023-05-04T11:13:11.513Z,33.10
2023-05-04T11:14:11.694Z,33.34
2023-05-04T11:15:11.549Z,33.29
2023-05-04T11:16:11.604Z,33.20
2023-05-04T11:17:20.249Z,33.09
2023-05-04T11:18:12.689Z,33.12
2023-05-04T11:19:11.632Z,33.02
2023-05-04T11:20:11.618Z,32.71
2023-05-04T11:21:11.637Z,32.77
2023-05-04T11:22:11.603Z,32.98
2023-05-04T11:23:11.616Z,33.21
2023-05-04T11:24:11.597Z,32.77
2023-05-04T11:25:11.601Z,32.60
2023-05-04T11:26:11.586Z,32.65
2023-05-04T11:27:11.649Z,32.60
2023-05-04T11:28:14.690Z,32.42
2023-05-04T11:29:11.692Z,32.12
2023-05-04T11:30:11.705Z,31.64
2023-05-04T11:31:11.674Z,32.09
2023-05-04T11:32:11.653Z,32.12
2023-05-04T11:33:11.693Z,32.28
2023-05-04T11:34:11.644Z,32.47
2023-05-04T11:35:11.725Z,32.43
2023-05-04T11:36:11.632Z,32.74
2023-05-04T11:37:11.611Z,32.75
2023-05-04T11:38:11.587Z,32.62
2023-05-04T11:39:11.603Z,32.56
2023-05-04T11:40:11.614Z,32.07
2023-05-04T11:41:11.602Z,31.43
2023-05-04T11:42:11.590Z,31.95
2023-05-04T11:43:11.594Z,32.08
2023-05-04T11:44:11.550Z,32.14
2023-05-04T11:45:11.574Z,32.17
2023-05-04T11:46:11.630Z,32.22
2023-05-04T11:47:11.536Z,32.10
2023-05-04T11:48:11.622Z,31.56
2023-05-04T11:49:11.537Z,31.86
2023-05-04T11:50:11.552Z,31.81
2023-05-04T11:51:11.528Z,31.98
2023-05-04T11:52:11.545Z,31.96
2023-05-04T11:53:11.508Z,32.01
2023-05-04T11:54:11.520Z,32.00
2023-05-04T11:55:11.516Z,32.19
2023-05-04T11:56:11.514Z,32.26
2023-05-04T11:57:11.482Z,32.20
2023-05-04T11:58:11.502Z,32.10
2023-05-04T11:59:11.464Z,32.18
2023-05-04T12:00:11.482Z,32.13
2023-05-04T12:01:11.462Z,32.01
2023-05-04T12:02:11.441Z,32.19
2023-05-04T12:03:11.581Z,32.23
2023-05-04T12:04:11.508Z,32.00
2023-05-04T12:05:11.455Z,32.12
2023-05-04T12:06:11.432Z,31.71
2023-05-04T12:07:11.396Z,31.70
2023-05-04T12:08:11.408Z,31.60
2023-05-04T12:09:11.418Z,31.24
2023-05-04T12:10:11.398Z,31.21
2023-05-04T12:11:11.479Z,30.78
2023-05-04T12:12:11.374Z,30.92
2023-05-04T12:13:11.424Z,30.87
2023-05-04T12:14:11.365Z,31.05
2023-05-04T12:15:11.361Z,30.96
2023-05-04T12:16:11.366Z,30.99
2023-05-04T12:17:11.328Z,30.99
2023-05-04T12:18:11.412Z,30.89
2023-05-04T12:19:11.602Z,31.07
2023-05-04T12:20:11.379Z,31.25
2023-05-04T12:21:11.294Z,30.86
2023-05-04T12:22:11.299Z,31.31
2023-05-04T12:23:11.318Z,31.26
2023-05-04T12:24:11.694Z,30.74
2023-05-04T12:25:11.331Z,30.90
2023-05-04T12:26:11.338Z,30.91
2023-05-04T12:27:11.272Z,30.43
2023-05-04T12:28:11.291Z,30.49
2023-05-04T12:29:12.039Z,30.78
2023-05-04T12:30:11.348Z,30.34
2023-05-04T12:31:11.342Z,29.96
2023-05-04T12:32:11.330Z,30.54
2023-05-04T12:33:11.258Z,30.35
2023-05-04T12:34:11.242Z,30.35
2023-05-04T12:35:11.229Z,28.95
2023-05-04T12:36:11.240Z,28.70
2023-05-04T12:37:11.205Z,28.36
2023-05-04T12:38:11.208Z,28.37
2023-05-04T12:39:11.184Z,29.79
2023-05-04T12:40:21.206Z,29.25
2023-05-04T12:41:12.182Z,29.03
2023-05-04T12:42:11.171Z,28.76
2023-05-04T12:43:11.178Z,29.45
2023-05-04T12:44:11.170Z,29.12
2023-05-04T12:45:11.160Z,28.92
2023-05-04T12:46:11.241Z,29.94
2023-05-04T12:47:11.152Z,30.03
2023-05-04T12:48:11.146Z,29.67
2023-05-04T12:49:11.136Z,29.64
2023-05-04T12:50:11.133Z,28.53
2023-05-04T12:51:11.129Z,27.00
2023-05-04T12:52:11.106Z,27.85
2023-05-04T12:53:11.079Z,28.36